Afton Municipal Airport, WY

6:57 AM MST on December 06, 2019 (GMT -0700)
Afton Municipal

Weather History for KAFO - October, 2019

Change the Weather History Date:

Thursday, October 24, 2019

  Actual Average Record
Temperature  
Mean Temperature 28 °F -  
Max Temperature 41 °F 55 °F 66 °F (2014)
Min Temperature 15 °F 25 °F 19 °F (2017)
Degree Days  
Heating Degree Days 37    
Moisture  
Dew Point 18 °F    
Average Humidity 68    
Maximum Humidity 93    
Minimum Humidity 39    
Precipitation  
Precipitation 0.00 in - - ()
Sea Level Pressure  
Sea Level Pressure 30.42 in    
Wind  
Wind Speed 2 mph ()    
Max Wind Speed 7 mph    
Max Gust Speed -    
Visibility 10.0 miles    
Events      
Averages and records for this station are not official NWS values.
T = Trace of Precipitation, MM = Missing Value Source: Averaged Metar Reports

Daily Weather History Graph

Daily Weather History Graph

Search for Another Location

Airport or City:

Astronomy

Oct. 24, 2019 Rise Set
Actual Time 7:47 AM MDT 6:27 PM MDT
Civil Twilight 7:18 AM MDT 6:56 PM MDT
Nautical Twilight 6:45 AM MDT 7:29 PM MDT
Astronomical Twilight 6:12 AM MDT 8:02 PM MDT
Moon 3:13 AM MDT (10/24) 5:04 PM MDT (10/24)
Length of Visible Light 11h 37m
Length of Day
10h 40m
Waning Crescent, 16% of the Moon is Illuminated
Oct 24
Waning Crescent
Oct 27
New
Nov 4
First Quarter
Nov 12
Full
Nov 19
Last Quarter

Hourly Weather History & Observations

Time (MDT) Temp. Windchill Dew Point Humidity Pressure Visibility Wind Dir Wind Speed Gust Speed Precip Events Conditions
12:15 AM 21.2 °F - 17.6 °F 86% 30.36 in 10.0 mi Calm Calm - N/A   Clear
12:35 AM 19.4 °F 14.3 °F 17.6 °F 93% 30.37 in 10.0 mi SSW 3.5 mph - N/A   Clear
12:55 AM 21.2 °F - 19.4 °F 93% 30.37 in 10.0 mi Calm Calm - N/A   Clear
1:15 AM 21.2 °F 16.4 °F 17.6 °F 86% 30.38 in 10.0 mi South 3.5 mph - N/A   Clear
1:35 AM 19.4 °F - 17.6 °F 93% 30.38 in 10.0 mi Calm Calm - N/A   Clear
1:55 AM 19.4 °F 12.8 °F 15.8 °F 86% 30.39 in 10.0 mi SSE 4.6 mph - N/A   Clear
2:15 AM 19.4 °F - 17.6 °F 93% 30.39 in 10.0 mi Calm Calm - N/A   Clear
2:35 AM 21.2 °F - 15.8 °F 80% 30.39 in 10.0 mi Calm Calm - N/A   Clear
2:55 AM 19.4 °F - 15.8 °F 86% 30.40 in 10.0 mi Calm Calm - N/A   Clear
3:15 AM 23.0 °F - 17.6 °F 80% 30.40 in 10.0 mi Calm Calm - N/A   Clear
3:35 AM 19.4 °F - 15.8 °F 86% 30.39 in 10.0 mi Calm Calm - N/A   Clear
3:55 AM 19.4 °F - 15.8 °F 86% 30.39 in 10.0 mi Calm Calm - N/A   Clear
4:15 AM 19.4 °F 12.8 °F 14.0 °F 80% 30.40 in 10.0 mi WSW 4.6 mph - N/A   Clear
4:35 AM 21.2 °F - 15.8 °F 80% 30.41 in 10.0 mi Calm Calm - N/A   Clear
4:55 AM 17.6 °F - 14.0 °F 86% 30.41 in 10.0 mi Calm Calm - N/A   Clear
5:15 AM 17.6 °F - 14.0 °F 86% 30.40 in 10.0 mi Calm Calm - N/A   Clear
5:35 AM 19.4 °F - 15.8 °F 86% 30.41 in 10.0 mi Calm Calm - N/A   Clear
5:55 AM 17.6 °F - 14.0 °F 86% 30.42 in 10.0 mi Calm Calm - N/A   Clear
6:15 AM 15.8 °F - 14.0 °F 93% 30.42 in 10.0 mi Calm Calm - N/A   Clear
6:35 AM 17.6 °F - 14.0 °F 86% 30.43 in 10.0 mi Calm Calm - N/A   Clear
6:55 AM 17.6 °F - 14.0 °F 86% 30.42 in 10.0 mi Calm Calm - N/A   Clear
7:15 AM 17.6 °F 12.3 °F 12.2 °F 79% 30.42 in 10.0 mi SSW 3.5 mph - N/A   Clear
7:35 AM 15.8 °F - 12.2 °F 86% 30.42 in 10.0 mi Calm Calm - N/A   Clear
7:55 AM 17.6 °F - 14.0 °F 86% 30.42 in 10.0 mi Calm Calm - N/A   Clear
8:15 AM 17.6 °F - 14.0 °F 86% 30.42 in 10.0 mi Calm Calm - N/A   Clear
8:35 AM 17.6 °F - 14.0 °F 86% 30.43 in 10.0 mi Calm Calm - N/A   Clear
8:55 AM 19.4 °F - 14.0 °F 80% 30.43 in 10.0 mi Calm Calm - N/A   Clear
9:15 AM 23.0 °F - 17.6 °F 80% 30.44 in 10.0 mi Calm Calm - N/A   Clear
9:35 AM 23.0 °F - 17.6 °F 80% 30.44 in 10.0 mi Calm Calm - N/A   Clear
9:55 AM 26.6 °F - 19.4 °F 74% 30.46 in 10.0 mi Calm Calm - N/A   Clear
10:15 AM 26.6 °F - 19.4 °F 74% 30.45 in 10.0 mi Calm Calm - N/A   Clear
10:35 AM 28.4 °F - 19.4 °F 69% 30.44 in 10.0 mi Calm Calm - N/A   Clear
10:55 AM 28.4 °F - 21.2 °F 74% 30.46 in 10.0 mi Calm Calm - N/A   Clear
11:35 AM 32.0 °F - 19.4 °F 60% 30.44 in 10.0 mi Calm Calm - N/A   Clear
11:55 AM 32.0 °F - 21.2 °F 64% 30.44 in 10.0 mi Calm Calm - N/A   Scattered Clouds
12:15 PM 35.6 °F 32.8 °F 21.2 °F 56% 30.44 in 10.0 mi NNW 3.5 mph - N/A   Scattered Clouds
12:35 PM 35.6 °F - 21.2 °F 56% 30.43 in 10.0 mi Calm Calm - N/A   Mostly Cloudy
12:55 PM 37.4 °F - 19.4 °F 48% 30.42 in 10.0 mi Calm Calm - N/A   Overcast
1:15 PM 37.4 °F 34.9 °F 17.6 °F 45% 30.42 in 10.0 mi NE 3.5 mph - N/A   Overcast
1:35 PM 35.6 °F - 17.6 °F 48% 30.41 in 10.0 mi Calm Calm - N/A   Overcast
1:55 PM 37.4 °F 32.1 °F 17.6 °F 45% 30.40 in 10.0 mi NNE 6.9 mph - N/A   Overcast
2:15 PM 37.4 °F 32.1 °F 17.6 °F 45% 30.40 in 10.0 mi NNE 6.9 mph - N/A   Overcast
2:35 PM 37.4 °F 32.8 °F 17.6 °F 45% 30.40 in 10.0 mi North 5.8 mph - N/A   Overcast
2:55 PM 37.4 °F 32.1 °F 17.6 °F 45% 30.39 in 10.0 mi North 6.9 mph - N/A   Overcast
3:15 PM 39.2 °F 37.0 °F 19.4 °F 45% 30.39 in 10.0 mi NE 3.5 mph - N/A   Overcast
3:35 PM 41.0 °F 38.0 °F 17.6 °F 39% 30.39 in 10.0 mi NE 4.6 mph - N/A   Overcast
3:55 PM 41.0 °F 36.4 °F 19.4 °F 42% 30.39 in 10.0 mi NNE 6.9 mph - N/A   Overcast
4:15 PM 41.0 °F - 17.6 °F 39% 30.40 in 10.0 mi Calm Calm - N/A   Overcast
4:35 PM 41.0 °F 38.0 °F 19.4 °F 42% 30.40 in 10.0 mi NE 4.6 mph - N/A   Overcast
4:55 PM 39.2 °F - 17.6 °F 42% 30.41 in 10.0 mi Calm Calm - N/A   Overcast
5:15 PM 37.4 °F 33.8 °F 19.4 °F 48% 30.41 in 10.0 mi NNE 4.6 mph - N/A   Scattered Clouds
5:35 PM 37.4 °F 33.8 °F 19.4 °F 48% 30.41 in 10.0 mi NE 4.6 mph - N/A   Mostly Cloudy
5:55 PM 39.2 °F 37.0 °F 17.6 °F 42% 30.41 in 10.0 mi NE 3.5 mph - N/A   Overcast
6:15 PM 37.4 °F 32.8 °F 17.6 °F 45% 30.41 in 10.0 mi North 5.8 mph - N/A   Overcast
6:35 PM 37.4 °F 33.8 °F 19.4 °F 48% 30.41 in 10.0 mi North 4.6 mph - N/A   Overcast
6:55 PM 37.4 °F 34.9 °F 21.2 °F 52% 30.42 in 10.0 mi North 3.5 mph - N/A   Overcast
7:15 PM 35.6 °F 31.7 °F 21.2 °F 56% 30.43 in 10.0 mi NW 4.6 mph - N/A   Overcast
7:35 PM 33.8 °F - 21.2 °F 60% 30.43 in 10.0 mi Calm Calm - N/A   Scattered Clouds
7:55 PM 32.0 °F 28.7 °F 21.2 °F 64% 30.43 in 10.0 mi North 3.5 mph - N/A   Scattered Clouds
8:15 PM 32.0 °F 28.7 °F 21.2 °F 64% 30.44 in 10.0 mi WNW 3.5 mph - N/A   Overcast
8:35 PM 32.0 °F 28.7 °F 21.2 °F 64% 30.44 in 10.0 mi NNW 3.5 mph - N/A   Overcast
8:55 PM 33.8 °F 28.6 °F 23.0 °F 65% 30.45 in 10.0 mi NE 5.8 mph - N/A   Overcast
9:15 PM 33.8 °F 28.6 °F 21.2 °F 60% 30.46 in 10.0 mi NNE 5.8 mph - N/A   Overcast
9:35 PM 33.8 °F 27.7 °F 21.2 °F 60% 30.46 in 10.0 mi ENE 6.9 mph - N/A   Overcast
9:55 PM 33.8 °F 28.6 °F 21.2 °F 60% 30.46 in 10.0 mi NE 5.8 mph - N/A   Overcast
10:15 PM 33.8 °F 29.6 °F 21.2 °F 60% 30.46 in 10.0 mi East 4.6 mph - N/A   Overcast
10:35 PM 32.0 °F - 21.2 °F 64% 30.47 in 10.0 mi North - - N/A   Mostly Cloudy
10:55 PM 32.0 °F 27.5 °F 21.2 °F 64% 30.47 in 10.0 mi NE 4.6 mph - N/A   Scattered Clouds
11:15 PM 32.0 °F 27.5 °F 21.2 °F 64% 30.48 in 10.0 mi East 4.6 mph - N/A   Scattered Clouds
11:35 PM 30.2 °F 25.4 °F 21.2 °F 69% 30.48 in 10.0 mi SSE 4.6 mph - N/A   Scattered Clouds
11:55 PM 30.2 °F 26.7 °F 21.2 °F 69% 30.48 in 10.0 mi South 3.5 mph - N/A   Clear